Saint Peters, Missouri
Current Conditions -  °F | °C
As of 11:54 AM on Wednesday 28 Jan 2015 (Local Time) from KSUS Reporting Station
Clear Clear  
Wind Chill: 40°   Ceiling: Unl
Heat Index: 45°   Visibility: 10mi
Dew Point: 29°   Wind: 9mph
Humidity: 53%   Direction: 150°SSE
Pressure: 30.12"   Gusts: 22mph
Location:  38.8°N, 90.63°W
Report Text: KSUS 281754Z 15008G19KT 10SM CLR 07/M02 A3012 RMK AO2 PRESFR SLP206 T00721017 10072 21017 58029
Loading
Personal Weather Stations






























Interactive Weather Map New forecast layout! Learn more

10-Day Weather Forecast

Advertisements
Track Severe Weather on mobile